Time;durP1;ratioP1;P1;durP2;ratioP2;P2;SDS_P1;SDS_P2;PMS_P1;PMS_P2;Temp;Humidity;BMP_temperature;BMP_pressure;BME280_temperature;BME280_humidity;BME280_pressure;Samples;Min_cycle;Max_cycle;Signal;HPM_P1;HPM_P2
2023/12/31 06:01:16;;;;;;;11.60;7.30;;;;;;;;;;6129013;23;20853;-79
2023/12/31 06:03:42;;;;;;;21.63;7.90;;;;;;;;;;5013081;28;20454;-77
2023/12/31 06:06:08;;;;;;;9.47;6.87;;;;;;;;;;5013928;28;20417;-77
2023/12/31 06:08:34;;;;;;;9.90;7.23;;;;;;;;;;5012499;28;20406;-78
2023/12/31 06:11:00;;;;;;;26.83;7.90;;;;;;;;;;5005174;28;20464;-77
2023/12/31 06:13:26;;;;;;;10.27;7.00;;;;;;;;;;5006977;28;20419;-78
2023/12/31 06:15:52;;;;;;;13.97;8.10;;;;;;;;;;4993039;28;20514;-77
2023/12/31 06:18:18;;;;;;;16.93;7.80;;;;;;;;;;4994930;28;20418;-77
2023/12/31 06:20:44;;;;;;;13.67;6.77;;;;;;;;;;4993347;28;20438;-77
2023/12/31 06:23:10;;;;;;;14.50;6.53;;;;;;;;;;5008419;28;20776;-77
2023/12/31 06:25:36;;;;;;;14.73;6.50;;;;;;;;;;5008845;28;20820;-77
2023/12/31 06:28:02;;;;;;;12.90;7.60;;;;;;;;;;5008739;28;20787;-77
2023/12/31 06:30:28;;;;;;;13.23;7.43;;;;;;;;;;4993581;28;20439;-77
2023/12/31 06:32:54;;;;;;;14.07;7.33;;;;;;;;;;4993670;28;20466;-77
2023/12/31 06:35:20;;;;;;;12.00;6.27;;;;;;;;;;4993776;28;20415;-77
2023/12/31 06:37:46;;;;;;;11.57;7.57;;;;;;;;;;4996212;28;20411;-77
2023/12/31 06:40:12;;;;;;;11.97;6.53;;;;;;;;;;4997297;28;20462;-77
2023/12/31 06:42:38;;;;;;;14.30;7.37;;;;;;;;;;5012443;28;20478;-77
2023/12/31 06:45:05;;;;;;;13.00;7.00;;;;;;;;;;4997518;28;20423;-77
2023/12/31 06:47:31;;;;;;;9.93;6.40;;;;;;;;;;5012236;28;20431;-77
2023/12/31 06:49:57;;;;;;;13.27;6.40;;;;;;;;;;5012515;28;20411;-77
2023/12/31 06:52:23;;;;;;;8.03;5.47;;;;;;;;;;4997893;28;20528;-77
2023/12/31 06:54:48;;;;;;;12.90;6.90;;;;;;;;;;4998273;28;20902;-77
2023/12/31 06:57:14;;;;;;;17.13;6.40;;;;;;;;;;5013003;28;20833;-77
2023/12/31 06:59:40;;;;;;;11.53;6.60;;;;;;;;;;4998045;28;20770;-77
2023/12/31 07:02:06;;;;;;;13.90;6.53;;;;;;;;;;4997707;28;20924;-77
2023/12/31 07:04:32;;;;;;;15.53;7.20;;;;;;;;;;4997437;28;20414;-77
2023/12/31 07:06:58;;;;;;;11.47;6.60;;;;;;;;;;5013172;28;20426;-77
2023/12/31 07:09:24;;;;;;;13.93;6.43;;;;;;;;;;4997895;28;20474;-77
2023/12/31 07:11:50;;;;;;;15.97;7.23;;;;;;;;;;4997230;28;20462;-78
2023/12/31 07:14:16;;;;;;;13.23;7.10;;;;;;;;;;5012488;28;20437;-77
2023/12/31 07:16:42;;;;;;;14.87;7.40;;;;;;;;;;5012736;28;20411;-77
2023/12/31 07:19:08;;;;;;;11.00;6.00;;;;;;;;;;5012521;28;20469;-77
2023/12/31 07:21:34;;;;;;;20.27;7.20;;;;;;;;;;5011896;28;20445;-77
2023/12/31 07:24:00;;;;;;;15.27;6.60;;;;;;;;;;5012415;28;20411;-77
2023/12/31 07:26:27;;;;;;;11.47;5.67;;;;;;;;;;4996477;28;20414;-77
2023/12/31 07:28:53;;;;;;;9.43;5.70;;;;;;;;;;4996945;28;20425;-77
2023/12/31 07:31:20;;;;;;;17.97;7.27;;;;;;;;;;5012228;28;20473;-77
2023/12/31 07:33:46;;;;;;;13.53;5.73;;;;;;;;;;5012246;28;20443;-77
2023/12/31 07:36:12;;;;;;;14.30;6.87;;;;;;;;;;5012024;28;20419;-78
2023/12/31 07:38:38;;;;;;;9.33;5.43;;;;;;;;;;5012094;28;20778;-78
2023/12/31 07:41:04;;;;;;;9.57;5.77;;;;;;;;;;4997312;28;20431;-77
2023/12/31 07:43:31;;;;;;;10.87;5.33;;;;;;;;;;5012037;28;20890;-78
2023/12/31 07:45:57;;;;;;;11.80;5.63;;;;;;;;;;5011301;28;20415;-78
2023/12/31 07:48:24;;;;;;;11.90;5.93;;;;;;;;;;4995256;28;20422;-77
2023/12/31 07:50:50;;;;;;;9.33;4.97;;;;;;;;;;5011624;28;20907;-77
2023/12/31 07:53:16;;;;;;;9.40;5.57;;;;;;;;;;5012279;28;20438;-77
2023/12/31 07:55:42;;;;;;;7.30;4.23;;;;;;;;;;5012147;28;20418;-78
2023/12/31 07:58:07;;;;;;;10.03;4.53;;;;;;;;;;4997441;28;20419;-78
2023/12/31 08:00:33;;;;;;;6.20;4.50;;;;;;;;;;4996997;28;20779;-77
2023/12/31 08:02:59;;;;;;;6.80;4.10;;;;;;;;;;5014978;28;20802;-77
2023/12/31 08:05:25;;;;;;;5.57;3.53;;;;;;;;;;5001975;28;20442;-77
2023/12/31 08:07:51;;;;;;;7.23;3.63;;;;;;;;;;5015888;28;20569;-77
2023/12/31 08:10:18;;;;;;;6.50;3.60;;;;;;;;;;5012233;28;20415;-77
2023/12/31 08:12:44;;;;;;;7.57;3.17;;;;;;;;;;4995767;28;20463;-77
2023/12/31 08:15:10;;;;;;;3.77;2.90;;;;;;;;;;5011605;28;20779;-77
2023/12/31 08:17:37;;;;;;;5.47;3.47;;;;;;;;;;4996923;28;20514;-77
2023/12/31 08:20:04;;;;;;;6.77;3.57;;;;;;;;;;5011921;28;20800;-77
2023/12/31 08:22:29;;;;;;;5.47;3.50;;;;;;;;;;4996140;28;20439;-77
2023/12/31 08:24:55;;;;;;;4.10;2.90;;;;;;;;;;4998812;28;20450;-78
2023/12/31 08:27:21;;;;;;;4.07;3.10;;;;;;;;;;5015355;28;20406;-78
2023/12/31 08:29:47;;;;;;;7.53;3.03;;;;;;;;;;5013116;28;20431;-77
2023/12/31 08:32:13;;;;;;;5.03;3.90;;;;;;;;;;5011357;28;20494;-77
2023/12/31 08:34:40;;;;;;;5.60;3.77;;;;;;;;;;4995694;28;20418;-77
2023/12/31 08:37:06;;;;;;;10.20;3.70;;;;;;;;;;4996585;28;20491;-77
2023/12/31 08:39:32;;;;;;;8.47;3.83;;;;;;;;;;5010736;28;20894;-77
2023/12/31 08:41:57;;;;;;;6.50;3.70;;;;;;;;;;4995413;28;20910;-78
2023/12/31 08:44:23;;;;;;;6.47;4.07;;;;;;;;;;4994617;28;20916;-77
2023/12/31 08:46:50;;;;;;;6.97;3.70;;;;;;;;;;4994690;28;20902;-77
2023/12/31 08:49:16;;;;;;;5.43;3.53;;;;;;;;;;4994817;28;20415;-77
2023/12/31 08:51:42;;;;;;;7.63;3.90;;;;;;;;;;5009727;28;20463;-77
2023/12/31 08:54:08;;;;;;;6.60;4.50;;;;;;;;;;4994066;28;20465;-77
2023/12/31 08:56:34;;;;;;;7.83;4.27;;;;;;;;;;5009218;28;20429;-77
2023/12/31 08:59:00;;;;;;;5.43;4.23;;;;;;;;;;5009579;28;20402;-77
2023/12/31 09:01:26;;;;;;;10.67;4.33;;;;;;;;;;5009035;28;20493;-77
2023/12/31 09:03:52;;;;;;;8.37;4.20;;;;;;;;;;4994860;28;20430;-77
2023/12/31 09:06:18;;;;;;;4.40;3.87;;;;;;;;;;4995004;28;20411;-77
2023/12/31 09:08:44;;;;;;;7.47;4.53;;;;;;;;;;5012612;28;20415;-77
2023/12/31 09:11:10;;;;;;;7.23;4.53;;;;;;;;;;4996564;28;20996;-77
2023/12/31 09:13:36;;;;;;;6.80;4.10;;;;;;;;;;5009404;28;20414;-77
2023/12/31 09:16:02;;;;;;;6.03;3.73;;;;;;;;;;4994189;28;20417;-77
2023/12/31 09:18:28;;;;;;;7.67;4.30;;;;;;;;;;5009375;28;20493;-77
2023/12/31 09:20:54;;;;;;;8.60;4.90;;;;;;;;;;4993434;28;20431;-77
2023/12/31 09:23:20;;;;;;;9.33;5.10;;;;;;;;;;4993642;28;20403;-78
2023/12/31 09:25:46;;;;;;;11.73;4.30;;;;;;;;;;5008606;28;20497;-77
2023/12/31 09:28:12;;;;;;;7.77;4.30;;;;;;;;;;5008463;28;20502;-77
2023/12/31 09:30:38;;;;;;;7.23;4.60;;;;;;;;;;5008466;28;21029;-77
2023/12/31 09:33:04;;;;;;;8.10;4.80;;;;;;;;;;5008099;28;20497;-77
2023/12/31 09:35:30;;;;;;;5.90;4.57;;;;;;;;;;4993013;28;20417;-77
2023/12/31 09:37:56;;;;;;;6.93;5.20;;;;;;;;;;5008429;28;20895;-77
2023/12/31 09:40:22;;;;;;;7.23;4.30;;;;;;;;;;4994301;28;20782;-77
2023/12/31 09:42:49;;;;;;;8.53;3.90;;;;;;;;;;5009550;28;20906;-77
2023/12/31 09:45:16;;;;;;;9.83;4.83;;;;;;;;;;4993758;28;20411;-77
2023/12/31 09:47:43;;;;;;;6.13;3.90;;;;;;;;;;4993952;28;20407;-77
2023/12/31 09:50:09;;;;;;;7.03;4.50;;;;;;;;;;5009508;28;20416;-77
2023/12/31 09:52:36;;;;;;;5.50;3.63;;;;;;;;;;4994794;28;20463;-77
2023/12/31 09:55:02;;;;;;;11.20;5.23;;;;;;;;;;5009462;28;20446;-77
2023/12/31 09:57:34;;;;;;;7.00;4.63;;;;;;;;;;4994159;28;20411;-78
2023/12/31 10:00:01;;;;;;;6.30;3.70;;;;;;;;;;4993926;28;20834;-77
2023/12/31 10:02:27;;;;;;;6.23;4.17;;;;;;;;;;5008171;28;20439;-77
2023/12/31 10:04:54;;;;;;;4.93;3.77;;;;;;;;;;5011799;28;20433;-77
2023/12/31 10:07:22;;;;;;;6.80;4.20;;;;;;;;;;4999060;28;20500;-70
2023/12/31 10:09:49;;;;;;;7.80;4.77;;;;;;;;;;4995050;28;20410;-75
2023/12/31 10:12:15;;;;;;;5.90;3.97;;;;;;;;;;5017583;28;20476;-77
2023/12/31 10:14:41;;;;;;;7.90;4.87;;;;;;;;;;5007671;28;20415;-77
2023/12/31 10:17:08;;;;;;;6.37;4.80;;;;;;;;;;5000881;28;20430;-77
2023/12/31 10:19:34;;;;;;;6.97;4.57;;;;;;;;;;4995833;28;21125;-77
2023/12/31 10:22:00;;;;;;;5.80;4.40;;;;;;;;;;4996506;28;20427;-78
2023/12/31 10:24:29;;;;;;;6.77;4.17;;;;;;;;;;4995124;28;20778;-77
2023/12/31 10:27:02;;;;;;;7.37;4.20;;;;;;;;;;4994965;28;20410;-78
2023/12/31 10:29:28;;;;;;;6.87;4.50;;;;;;;;;;4995551;28;20406;-78
2023/12/31 10:31:54;;;;;;;4.80;3.63;;;;;;;;;;4999233;28;20482;-78
2023/12/31 10:34:20;;;;;;;5.33;3.13;;;;;;;;;;5016779;28;20774;-77
2023/12/31 10:36:47;;;;;;;7.03;4.00;;;;;;;;;;5003007;28;20442;-72
2023/12/31 10:39:29;;;;;;;4.13;3.20;;;;;;;;;;4993152;28;20572;-72
2023/12/31 10:41:59;;;;;;;5.20;3.97;;;;;;;;;;4993812;28;20442;-72
2023/12/31 10:44:26;;;;;;;7.57;4.10;;;;;;;;;;5000132;28;20411;-72
2023/12/31 10:46:59;;;;;;;9.70;3.77;;;;;;;;;;5004155;28;20422;-73
2023/12/31 10:49:27;;;;;;;8.10;4.80;;;;;;;;;;5004452;28;20419;-73
2023/12/31 10:51:53;;;;;;;7.07;4.10;;;;;;;;;;4993474;28;20459;-72
2023/12/31 10:54:38;;;;;;;4.70;3.60;;;;;;;;;;4992327;28;20422;-73
2023/12/31 10:57:06;;;;;;;7.30;3.80;;;;;;;;;;4991206;28;20418;-76
2023/12/31 10:59:34;;;;;;;7.73;3.60;;;;;;;;;;4991839;28;20415;-73
2023/12/31 11:02:00;;;;;;;7.23;4.13;;;;;;;;;;4991613;28;21020;-74
2023/12/31 11:04:26;;;;;;;7.57;4.90;;;;;;;;;;4991496;28;20415;-72
2023/12/31 11:06:53;;;;;;;6.33;4.20;;;;;;;;;;4991736;28;20411;-73
2023/12/31 11:09:19;;;;;;;7.23;4.70;;;;;;;;;;4991037;28;20503;-71
2023/12/31 11:11:45;;;;;;;5.60;4.00;;;;;;;;;;4983978;28;20463;-76
2023/12/31 11:14:12;;;;;;;8.33;4.47;;;;;;;;;;4979751;28;20422;-76
2023/12/31 11:16:53;;;;;;;6.97;4.20;;;;;;;;;;4972364;28;20466;-76
2023/12/31 11:19:38;;;;;;;5.33;3.40;;;;;;;;;;4971161;28;20428;-76
2023/12/31 11:22:30;;;;;;;5.30;3.73;;;;;;;;;;4972366;28;20439;-75
2023/12/31 11:24:57;;;;;;;6.00;4.43;;;;;;;;;;4972269;28;20511;-76
2023/12/31 11:27:27;;;;;;;5.80;4.17;;;;;;;;;;4975881;28;20504;-76
2023/12/31 11:29:53;;;;;;;5.80;4.20;;;;;;;;;;4975762;28;20411;-76
2023/12/31 11:32:22;;;;;;;11.73;4.17;;;;;;;;;;4975536;28;20462;-77
2023/12/31 11:34:55;;;;;;;8.30;4.97;;;;;;;;;;4975943;28;20443;-76
2023/12/31 11:37:24;;;;;;;6.60;4.77;;;;;;;;;;4976081;28;20408;-76
2023/12/31 11:39:55;;;;;;;7.00;4.53;;;;;;;;;;4974534;28;20431;-76
2023/12/31 11:42:21;;;;;;;6.27;4.40;;;;;;;;;;4977562;28;20443;-76
2023/12/31 11:44:47;;;;;;;7.33;4.60;;;;;;;;;;4981102;28;20416;-75
2023/12/31 11:47:17;;;;;;;9.30;5.17;;;;;;;;;;4975420;28;20477;-76
2023/12/31 11:49:53;;;;;;;6.13;4.50;;;;;;;;;;4975576;28;20419;-76
2023/12/31 11:52:22;;;;;;;4.77;3.00;;;;;;;;;;4975186;28;20556;-75
2023/12/31 11:54:51;;;;;;;3.17;2.13;;;;;;;;;;4975439;28;20860;-75
2023/12/31 11:57:20;;;;;;;1.97;1.87;;;;;;;;;;4975398;28;20900;-76
2023/12/31 11:59:46;;;;;;;2.80;1.93;;;;;;;;;;4974155;28;20427;-76
2023/12/31 12:02:12;;;;;;;2.67;2.27;;;;;;;;;;4973660;28;20455;-74
2023/12/31 12:04:38;;;;;;;3.10;1.60;;;;;;;;;;4980826;28;20428;-76
2023/12/31 12:07:05;;;;;;;3.37;1.80;;;;;;;;;;4995057;28;20765;-76
2023/12/31 12:09:31;;;;;;;5.70;1.33;;;;;;;;;;4993336;28;20506;-77
2023/12/31 12:12:05;;;;;;;1.67;1.23;;;;;;;;;;4983536;28;20587;-75
2023/12/31 12:14:31;;;;;;;2.33;1.53;;;;;;;;;;5006140;23;20446;-73
2023/12/31 12:16:59;;;;;;;1.70;1.33;;;;;;;;;;4975220;28;20436;-73
2023/12/31 12:19:25;;;;;;;1.80;1.60;;;;;;;;;;4975056;28;20436;-73
2023/12/31 12:21:51;;;;;;;1.30;1.10;;;;;;;;;;4974015;28;20833;-74
2023/12/31 12:24:18;;;;;;;1.43;1.30;;;;;;;;;;4974936;28;20467;-74
2023/12/31 12:26:48;;;;;;;2.30;1.63;;;;;;;;;;4975276;28;20486;-73
2023/12/31 12:29:17;;;;;;;1.43;0.97;;;;;;;;;;4975400;28;20408;-73
2023/12/31 12:31:45;;;;;;;1.30;1.17;;;;;;;;;;4974130;28;20460;-73
2023/12/31 12:34:11;;;;;;;1.50;1.40;;;;;;;;;;4963859;28;20475;-74
2023/12/31 12:36:38;;;;;;;1.37;1.20;;;;;;;;;;4962384;28;20436;-74
2023/12/31 12:39:05;;;;;;;1.20;1.10;;;;;;;;;;4965084;28;20935;-74
2023/12/31 12:41:34;;;;;;;0.93;0.83;;;;;;;;;;4959637;28;20419;-74
2023/12/31 12:44:01;;;;;;;1.37;1.10;;;;;;;;;;4956157;28;20413;-74
2023/12/31 12:46:27;;;;;;;1.80;1.37;;;;;;;;;;4955843;28;20440;-73
2023/12/31 12:48:53;;;;;;;1.20;1.10;;;;;;;;;;4960991;28;20416;-74
2023/12/31 12:51:19;;;;;;;1.47;0.97;;;;;;;;;;4969642;28;20467;-75
2023/12/31 12:53:45;;;;;;;1.57;1.10;;;;;;;;;;4974672;28;20471;-75
2023/12/31 12:56:11;;;;;;;2.40;1.40;;;;;;;;;;4974741;28;20447;-75
2023/12/31 12:58:37;;;;;;;1.37;1.27;;;;;;;;;;4975130;28;20416;-74
2023/12/31 13:01:04;;;;;;;1.87;1.30;;;;;;;;;;4975333;28;20912;-75
2023/12/31 13:03:30;;;;;;;3.67;1.63;;;;;;;;;;4975713;28;20411;-73
2023/12/31 13:05:58;;;;;;;3.13;1.70;;;;;;;;;;4974601;28;20849;-72
2023/12/31 13:08:24;;;;;;;2.67;1.63;;;;;;;;;;4974783;28;20931;-73
2023/12/31 13:10:50;;;;;;;1.73;1.63;;;;;;;;;;4975067;28;20419;-74
2023/12/31 13:13:16;;;;;;;3.37;2.13;;;;;;;;;;4974343;28;20467;-75
2023/12/31 13:15:42;;;;;;;3.17;2.40;;;;;;;;;;4974741;28;20451;-74
2023/12/31 13:18:08;;;;;;;3.40;2.30;;;;;;;;;;4974623;28;20412;-71
2023/12/31 13:20:35;;;;;;;7.47;2.60;;;;;;;;;;4974068;28;20422;-74
2023/12/31 13:23:01;;;;;;;3.90;2.17;;;;;;;;;;4972861;28;20432;-74
2023/12/31 13:25:27;;;;;;;5.33;3.13;;;;;;;;;;4964493;28;20436;-74
2023/12/31 13:27:54;;;;;;;6.60;3.17;;;;;;;;;;4973734;28;20430;-75
2023/12/31 13:30:21;;;;;;;8.47;3.80;;;;;;;;;;4973862;28;20435;-73
2023/12/31 13:32:47;;;;;;;4.10;2.43;;;;;;;;;;4973740;28;20456;-73
2023/12/31 13:35:13;;;;;;;2.20;1.73;;;;;;;;;;4973852;28;20430;-73
2023/12/31 13:37:39;;;;;;;1.73;1.70;;;;;;;;;;4975218;28;20780;-74
2023/12/31 13:40:05;;;;;;;2.77;1.80;;;;;;;;;;4976776;28;20424;-74
2023/12/31 13:42:31;;;;;;;2.50;1.40;;;;;;;;;;4976518;28;20475;-74
2023/12/31 13:44:57;;;;;;;1.43;1.33;;;;;;;;;;4977496;28;20780;-75
2023/12/31 13:47:23;;;;;;;2.30;1.70;;;;;;;;;;4973074;28;20418;-74
2023/12/31 13:49:49;;;;;;;1.67;1.60;;;;;;;;;;4973537;28;20783;-74
2023/12/31 13:52:15;;;;;;;1.70;1.70;;;;;;;;;;4973488;28;20993;-74
2023/12/31 13:54:41;;;;;;;1.60;1.40;;;;;;;;;;4973236;28;20436;-74
2023/12/31 13:57:07;;;;;;;3.97;1.70;;;;;;;;;;4973497;28;20471;-74
2023/12/31 13:59:33;;;;;;;3.40;1.87;;;;;;;;;;4973412;28;20783;-74
2023/12/31 14:01:59;;;;;;;2.00;1.60;;;;;;;;;;4973837;28;20420;-74
2023/12/31 14:04:25;;;;;;;3.23;1.70;;;;;;;;;;4973033;28;20455;-73
2023/12/31 14:06:51;;;;;;;2.30;1.40;;;;;;;;;;4972216;28;20408;-74
2023/12/31 14:09:17;;;;;;;2.80;1.60;;;;;;;;;;4973436;28;20760;-73
2023/12/31 14:11:43;;;;;;;2.50;1.50;;;;;;;;;;4973132;28;20958;-73
2023/12/31 14:14:10;;;;;;;1.83;1.40;;;;;;;;;;4972884;28;20502;-72
2023/12/31 14:16:37;;;;;;;3.27;1.47;;;;;;;;;;4973207;28;20475;-73
2023/12/31 14:19:04;;;;;;;3.20;1.37;;;;;;;;;;4973057;28;20850;-73
2023/12/31 14:21:30;;;;;;;3.60;1.83;;;;;;;;;;4972970;28;20416;-73
2023/12/31 14:23:56;;;;;;;10.07;2.07;;;;;;;;;;4972925;28;20785;-73
2023/12/31 14:26:23;;;;;;;5.37;2.07;;;;;;;;;;4972954;28;20439;-73
2023/12/31 14:28:49;;;;;;;2.73;2.00;;;;;;;;;;4973734;28;20450;-73
2023/12/31 14:31:15;;;;;;;3.03;2.40;;;;;;;;;;4972951;28;20517;-73
2023/12/31 14:33:41;;;;;;;4.40;2.20;;;;;;;;;;4972778;28;20775;-73
2023/12/31 14:36:07;;;;;;;2.87;2.00;;;;;;;;;;4973068;28;20427;-74
2023/12/31 14:38:33;;;;;;;5.13;2.63;;;;;;;;;;4972989;28;20411;-74
2023/12/31 14:41:00;;;;;;;2.20;2.00;;;;;;;;;;4971878;28;20420;-74
2023/12/31 14:43:26;;;;;;;4.40;2.47;;;;;;;;;;4972645;28;20896;-74
2023/12/31 14:45:52;;;;;;;3.73;2.03;;;;;;;;;;4972843;28;20478;-74
2023/12/31 14:48:18;;;;;;;4.10;2.63;;;;;;;;;;4972793;28;20423;-73
2023/12/31 14:50:44;;;;;;;2.90;2.27;;;;;;;;;;4973613;28;20412;-73
2023/12/31 14:53:10;;;;;;;2.53;2.37;;;;;;;;;;4972987;28;20466;-73
2023/12/31 14:55:36;;;;;;;3.50;2.00;;;;;;;;;;4972563;28;20799;-73
2023/12/31 14:58:03;;;;;;;3.20;2.07;;;;;;;;;;4973900;28;20408;-73
2023/12/31 15:00:29;;;;;;;6.63;2.47;;;;;;;;;;4976340;28;20959;-73
2023/12/31 15:02:55;;;;;;;4.87;2.60;;;;;;;;;;4976227;28;20503;-73
2023/12/31 15:05:21;;;;;;;3.50;2.13;;;;;;;;;;4976259;28;20490;-73
2023/12/31 15:07:47;;;;;;;5.53;3.13;;;;;;;;;;4976589;28;20416;-74
2023/12/31 15:10:13;;;;;;;5.87;2.43;;;;;;;;;;4976432;28;20970;-74
2023/12/31 15:12:39;;;;;;;5.80;3.50;;;;;;;;;;4976070;28;20459;-73
2023/12/31 15:15:06;;;;;;;3.30;2.93;;;;;;;;;;4976157;28;20518;-73
2023/12/31 15:17:32;;;;;;;6.70;2.97;;;;;;;;;;4976323;28;20495;-73
2023/12/31 15:19:58;;;;;;;4.83;2.23;;;;;;;;;;4976127;28;20495;-73
2023/12/31 15:22:24;;;;;;;3.13;1.93;;;;;;;;;;4975843;28;20438;-73
2023/12/31 15:24:50;;;;;;;3.63;1.90;;;;;;;;;;4976151;28;20470;-74
2023/12/31 15:27:16;;;;;;;3.70;2.17;;;;;;;;;;4976239;28;20424;-74
2023/12/31 15:29:42;;;;;;;3.20;1.97;;;;;;;;;;4975824;28;20833;-73
2023/12/31 15:32:08;;;;;;;8.87;3.50;;;;;;;;;;4975451;28;20467;-74
2023/12/31 15:34:34;;;;;;;5.60;3.37;;;;;;;;;;4975573;28;20783;-73
2023/12/31 15:37:07;;;;;;;8.77;4.20;;;;;;;;;;4975540;28;20454;-73
2023/12/31 15:39:33;;;;;;;7.50;3.47;;;;;;;;;;4974534;28;20768;-73
2023/12/31 15:41:59;;;;;;;3.83;2.50;;;;;;;;;;4975562;28;20412;-73
2023/12/31 15:44:25;;;;;;;6.27;2.97;;;;;;;;;;4975364;28;20420;-73
2023/12/31 15:46:51;;;;;;;4.57;2.97;;;;;;;;;;4975581;28;20481;-73
2023/12/31 15:49:17;;;;;;;4.50;2.73;;;;;;;;;;4975869;28;20444;-73
2023/12/31 15:51:43;;;;;;;2.27;1.73;;;;;;;;;;4974187;28;20549;-73
2023/12/31 15:54:09;;;;;;;7.17;3.17;;;;;;;;;;4975428;28;20412;-73
2023/12/31 15:56:34;;;;;;;11.50;5.73;;;;;;;;;;4975354;28;20440;-73
2023/12/31 15:59:00;;;;;;;13.50;3.40;;;;;;;;;;4975330;28;20490;-73
2023/12/31 16:01:26;;;;;;;3.57;2.70;;;;;;;;;;4975337;28;20506;-73
2023/12/31 16:03:52;;;;;;;10.90;3.00;;;;;;;;;;4975223;28;20787;-73
2023/12/31 16:06:18;;;;;;;7.93;4.40;;;;;;;;;;4975035;28;20475;-73
2023/12/31 16:08:44;;;;;;;9.03;3.30;;;;;;;;;;4975188;28;20488;-73
2023/12/31 16:11:11;;;;;;;10.27;4.43;;;;;;;;;;4974336;28;20419;-73
2023/12/31 16:13:37;;;;;;;12.83;5.07;;;;;;;;;;4975259;28;20415;-73
2023/12/31 16:16:03;;;;;;;15.87;6.63;;;;;;;;;;4974390;28;20458;-73
2023/12/31 16:18:29;;;;;;;5.30;3.00;;;;;;;;;;4973738;28;20467;-71
2023/12/31 16:20:55;;;;;;;8.10;3.63;;;;;;;;;;4973841;28;20442;-69
2023/12/31 16:23:21;;;;;;;15.70;5.70;;;;;;;;;;4973762;28;20431;-70
2023/12/31 16:25:47;;;;;;;23.03;7.47;;;;;;;;;;4973721;28;20522;-71
2023/12/31 16:28:13;;;;;;;20.30;7.47;;;;;;;;;;4973895;28;20491;-74
2023/12/31 16:30:39;;;;;;;15.47;6.73;;;;;;;;;;4973855;28;20419;-74
2023/12/31 16:33:05;;;;;;;11.33;4.43;;;;;;;;;;4973507;28;20472;-72
2023/12/31 16:35:31;;;;;;;7.00;3.97;;;;;;;;;;4974399;28;20507;-75
2023/12/31 16:37:57;;;;;;;12.57;4.57;;;;;;;;;;4974999;28;20414;-74
2023/12/31 16:40:23;;;;;;;19.17;6.57;;;;;;;;;;4974315;28;20407;-70
2023/12/31 16:42:49;;;;;;;11.37;4.47;;;;;;;;;;4973641;28;20412;-71
2023/12/31 16:45:15;;;;;;;7.30;3.63;;;;;;;;;;4970454;28;20706;-73
2023/12/31 16:47:41;;;;;;;9.10;4.13;;;;;;;;;;4971926;28;20432;-73
2023/12/31 16:50:09;;;;;;;10.47;4.27;;;;;;;;;;4973257;28;20434;-73
2023/12/31 16:52:35;;;;;;;5.07;3.30;;;;;;;;;;4972700;28;20564;-74
2023/12/31 16:55:01;;;;;;;10.43;4.77;;;;;;;;;;4975059;28;20529;-74
2023/12/31 16:57:27;;;;;;;5.53;3.13;;;;;;;;;;4974721;28;20938;-73
2023/12/31 16:59:53;;;;;;;14.27;6.87;;;;;;;;;;4982152;28;20416;-73
2023/12/31 17:02:19;;;;;;;15.20;6.83;;;;;;;;;;4977692;28;20419;-73
2023/12/31 17:04:45;;;;;;;7.33;4.30;;;;;;;;;;4973798;28;20506;-73
2023/12/31 17:07:11;;;;;;;7.47;3.30;;;;;;;;;;4975254;28;20447;-73
2023/12/31 17:09:37;;;;;;;6.27;2.20;;;;;;;;;;4973796;28;20987;-73
2023/12/31 17:12:03;;;;;;;4.80;2.90;;;;;;;;;;4973440;28;20625;-73
2023/12/31 17:14:29;;;;;;;7.73;4.00;;;;;;;;;;4937278;28;1033385;-73
2023/12/31 17:16:55;;;;;;;6.13;3.20;;;;;;;;;;4973858;28;20400;-74
2023/12/31 17:19:22;;;;;;;4.13;2.80;;;;;;;;;;4973647;28;20411;-76
2023/12/31 17:21:48;;;;;;;3.80;2.60;;;;;;;;;;4972683;28;20423;-74
2023/12/31 17:24:13;;;;;;;3.83;2.20;;;;;;;;;;4973244;28;20412;-75
2023/12/31 17:26:39;;;;;;;4.10;3.10;;;;;;;;;;4973316;28;20443;-73
2023/12/31 17:29:05;;;;;;;3.40;2.53;;;;;;;;;;4973482;28;20569;-73
2023/12/31 17:31:31;;;;;;;3.53;2.20;;;;;;;;;;4973604;28;20470;-72
2023/12/31 17:33:57;;;;;;;3.20;2.43;;;;;;;;;;4973313;28;20507;-72
2023/12/31 17:36:23;;;;;;;4.00;2.60;;;;;;;;;;4970717;28;20522;-72
2023/12/31 17:38:50;;;;;;;8.70;3.83;;;;;;;;;;4971891;28;20442;-73
2023/12/31 17:41:16;;;;;;;5.90;2.90;;;;;;;;;;4973295;28;20498;-72
2023/12/31 17:43:42;;;;;;;8.90;3.77;;;;;;;;;;4971691;28;20754;-72
2023/12/31 17:46:08;;;;;;;6.27;2.90;;;;;;;;;;4973890;28;20468;-72
2023/12/31 17:48:34;;;;;;;3.40;2.90;;;;;;;;;;4973329;28;20446;-71
2023/12/31 17:51:02;;;;;;;6.50;3.20;;;;;;;;;;4973214;28;20408;-74
2023/12/31 17:53:30;;;;;;;3.13;2.40;;;;;;;;;;4972897;28;20486;-74
2023/12/31 17:55:56;;;;;;;10.77;4.10;;;;;;;;;;4974153;28;20549;-71
2023/12/31 17:58:24;;;;;;;8.77;3.63;;;;;;;;;;4973535;28;20934;-73
2023/12/31 18:00:50;;;;;;;5.73;3.07;;;;;;;;;;4972747;28;20416;-73
2023/12/31 18:03:16;;;;;;;9.00;3.37;;;;;;;;;;4972691;28;20424;-73
2023/12/31 18:05:42;;;;;;;5.60;3.23;;;;;;;;;;4972792;28;20483;-73
2023/12/31 18:08:08;;;;;;;5.30;3.03;;;;;;;;;;4972692;28;20473;-73
2023/12/31 18:10:34;;;;;;;6.30;3.10;;;;;;;;;;4972826;28;20443;-72
2023/12/31 18:13:00;;;;;;;9.00;4.90;;;;;;;;;;4972559;28;20591;-73
2023/12/31 18:15:26;;;;;;;12.43;5.10;;;;;;;;;;4973004;28;20456;-73
2023/12/31 18:17:53;;;;;;;16.47;5.73;;;;;;;;;;4972750;28;20772;-73
2023/12/31 18:20:19;;;;;;;7.07;3.93;;;;;;;;;;4972813;28;20415;-71
2023/12/31 18:22:46;;;;;;;8.20;3.53;;;;;;;;;;4972496;28;20420;-74
2023/12/31 18:25:12;;;;;;;4.87;3.13;;;;;;;;;;4971286;28;20448;-74
2023/12/31 18:27:38;;;;;;;3.60;2.30;;;;;;;;;;4972784;28;20423;-74
2023/12/31 18:30:04;;;;;;;8.63;3.90;;;;;;;;;;4972854;28;20551;-73
2023/12/31 18:32:30;;;;;;;17.83;5.47;;;;;;;;;;4972732;28;20467;-72
2023/12/31 18:34:56;;;;;;;8.80;4.13;;;;;;;;;;4976512;28;20890;-72
2023/12/31 18:37:22;;;;;;;9.23;4.60;;;;;;;;;;4976623;28;20766;-72
2023/12/31 18:39:54;;;;;;;4.30;2.57;;;;;;;;;;4976486;28;20800;-72
2023/12/31 18:42:20;;;;;;;2.43;2.20;;;;;;;;;;4977008;28;20486;-71
2023/12/31 18:44:46;;;;;;;5.70;2.83;;;;;;;;;;4976598;28;20846;-72
2023/12/31 18:47:12;;;;;;;7.67;2.83;;;;;;;;;;4976745;28;20787;-73
2023/12/31 18:49:37;;;;;;;3.87;2.57;;;;;;;;;;4976168;28;20870;-71
2023/12/31 18:52:04;;;;;;;3.30;2.53;;;;;;;;;;4976129;28;20783;-73
2023/12/31 18:54:29;;;;;;;2.80;2.57;;;;;;;;;;4976015;28;20502;-74
2023/12/31 18:56:55;;;;;;;10.03;3.10;;;;;;;;;;4976251;28;20448;-75
2023/12/31 18:59:22;;;;;;;5.73;2.40;;;;;;;;;;4975010;28;20420;-74
2023/12/31 19:01:48;;;;;;;4.03;2.60;;;;;;;;;;4976361;28;20424;-74
2023/12/31 19:04:16;;;;;;;2.97;2.70;;;;;;;;;;4976015;28;20499;-73
2023/12/31 19:06:42;;;;;;;4.93;3.23;;;;;;;;;;4976110;28;20822;-73
2023/12/31 19:09:08;;;;;;;4.00;2.63;;;;;;;;;;4976184;28;20427;-73
2023/12/31 19:11:34;;;;;;;7.90;3.10;;;;;;;;;;4975873;28;20467;-73
2023/12/31 19:14:00;;;;;;;5.30;2.90;;;;;;;;;;4968454;28;20926;-74
2023/12/31 19:16:28;;;;;;;4.27;3.10;;;;;;;;;;4975748;28;20455;-74
2023/12/31 19:18:56;;;;;;;4.70;2.70;;;;;;;;;;4975729;28;20412;-74
2023/12/31 19:21:25;;;;;;;3.87;2.93;;;;;;;;;;4975701;28;20422;-75
2023/12/31 19:23:52;;;;;;;3.87;2.17;;;;;;;;;;4975603;28;20447;-75
2023/12/31 19:26:18;;;;;;;5.57;2.60;;;;;;;;;;4975662;28;20440;-74
2023/12/31 19:28:44;;;;;;;8.73;3.30;;;;;;;;;;4975789;28;20434;-75
2023/12/31 19:31:09;;;;;;;5.23;3.40;;;;;;;;;;4975774;28;20920;-75
2023/12/31 19:33:36;;;;;;;11.47;4.37;;;;;;;;;;4975850;28;20988;-75
2023/12/31 19:36:02;;;;;;;5.57;3.50;;;;;;;;;;4976067;28;20482;-75
2023/12/31 19:38:28;;;;;;;8.00;4.30;;;;;;;;;;4976093;28;20423;-75
2023/12/31 19:40:54;;;;;;;12.47;5.83;;;;;;;;;;4975569;28;20924;-72
2023/12/31 19:43:20;;;;;;;18.90;7.80;;;;;;;;;;4975695;28;20424;-70
2023/12/31 19:45:46;;;;;;;20.40;7.77;;;;;;;;;;4974280;28;20444;-74
2023/12/31 19:48:13;;;;;;;9.17;5.10;;;;;;;;;;4975498;28;20415;-73
2023/12/31 19:50:39;;;;;;;10.27;4.50;;;;;;;;;;4974055;28;20428;-72
2023/12/31 19:53:05;;;;;;;7.80;4.93;;;;;;;;;;4975351;28;20478;-73
2023/12/31 19:55:31;;;;;;;6.37;3.50;;;;;;;;;;4967524;28;20437;-74
2023/12/31 19:57:57;;;;;;;13.47;5.87;;;;;;;;;;4975316;28;20510;-73
2023/12/31 20:00:23;;;;;;;17.03;7.10;;;;;;;;;;4975277;28;20408;-73
2023/12/31 20:02:49;;;;;;;29.87;12.87;;;;;;;;;;4970090;28;20925;-74
2023/12/31 20:05:15;;;;;;;38.87;13.20;;;;;;;;;;4975001;28;20442;-74
2023/12/31 20:07:41;;;;;;;16.40;7.73;;;;;;;;;;4969020;28;20862;-72
2023/12/31 20:10:07;;;;;;;11.83;6.23;;;;;;;;;;4976408;28;20424;-72
2023/12/31 20:12:33;;;;;;;7.33;3.50;;;;;;;;;;4974421;28;20555;-72
2023/12/31 20:14:59;;;;;;;14.93;8.10;;;;;;;;;;4975003;28;20447;-72
2023/12/31 20:17:25;;;;;;;13.77;8.43;;;;;;;;;;4972798;28;20503;-72
2023/12/31 20:19:51;;;;;;;10.70;5.50;;;;;;;;;;4968922;28;20510;-72
2023/12/31 20:22:17;;;;;;;13.87;6.10;;;;;;;;;;4972507;28;20931;-72
2023/12/31 20:24:44;;;;;;;9.53;5.50;;;;;;;;;;4976087;28;20461;-73
2023/12/31 20:27:10;;;;;;;8.70;4.73;;;;;;;;;;4977049;28;20502;-72
2023/12/31 20:29:37;;;;;;;7.90;3.53;;;;;;;;;;4973171;28;20499;-72
2023/12/31 20:32:05;;;;;;;7.80;4.23;;;;;;;;;;4974832;28;20498;-72
2023/12/31 20:34:31;;;;;;;7.33;4.07;;;;;;;;;;4974491;28;20416;-72
2023/12/31 20:36:57;;;;;;;8.30;5.40;;;;;;;;;;4978011;28;20423;-72